sensor_id;sensor_type;location;lat;lon;timestamp;P1;durP1;ratioP1;P2;durP2;ratioP2
46198;SDS011;31928;52.104;10.030;2023-08-24T00:01:48;1.58;;;1.48;;
46198;SDS011;31928;52.104;10.030;2023-08-24T00:04:15;2.58;;;1.55;;
46198;SDS011;31928;52.104;10.030;2023-08-24T00:06:41;1.60;;;1.50;;
46198;SDS011;31928;52.104;10.030;2023-08-24T00:09:11;1.60;;;1.50;;
46198;SDS011;31928;52.104;10.030;2023-08-24T00:11:37;1.77;;;1.67;;
46198;SDS011;31928;52.104;10.030;2023-08-24T00:14:04;2.97;;;1.75;;
46198;SDS011;31928;52.104;10.030;2023-08-24T00:16:31;1.75;;;1.50;;
46198;SDS011;31928;52.104;10.030;2023-08-24T00:18:57;1.83;;;1.50;;
46198;SDS011;31928;52.104;10.030;2023-08-24T00:21:24;1.80;;;1.50;;
46198;SDS011;31928;52.104;10.030;2023-08-24T00:23:51;2.22;;;1.75;;
46198;SDS011;31928;52.104;10.030;2023-08-24T00:26:18;1.98;;;1.58;;
46198;SDS011;31928;52.104;10.030;2023-08-24T00:28:46;1.60;;;1.50;;
46198;SDS011;31928;52.104;10.030;2023-08-24T00:31:14;1.95;;;1.38;;
46198;SDS011;31928;52.104;10.030;2023-08-24T00:33:42;1.85;;;1.75;;
46198;SDS011;31928;52.104;10.030;2023-08-24T00:36:09;1.65;;;1.50;;
46198;SDS011;31928;52.104;10.030;2023-08-24T00:38:36;2.05;;;1.77;;
46198;SDS011;31928;52.104;10.030;2023-08-24T00:41:03;1.67;;;1.50;;
46198;SDS011;31928;52.104;10.030;2023-08-24T00:43:30;2.13;;;1.40;;
46198;SDS011;31928;52.104;10.030;2023-08-24T00:45:57;1.42;;;1.33;;
46198;SDS011;31928;52.104;10.030;2023-08-24T00:48:27;1.90;;;1.80;;
46198;SDS011;31928;52.104;10.030;2023-08-24T00:50:56;1.83;;;1.60;;
46198;SDS011;31928;52.104;10.030;2023-08-24T00:53:25;1.58;;;1.48;;
46198;SDS011;31928;52.104;10.030;2023-08-24T00:55:53;1.75;;;1.65;;
46198;SDS011;31928;52.104;10.030;2023-08-24T00:58:20;1.50;;;1.40;;
46198;SDS011;31928;52.104;10.030;2023-08-24T01:00:48;1.80;;;1.70;;
46198;SDS011;31928;52.104;10.030;2023-08-24T01:03:17;2.00;;;1.70;;
46198;SDS011;31928;52.104;10.030;2023-08-24T01:05:44;1.80;;;1.70;;
46198;SDS011;31928;52.104;10.030;2023-08-24T01:08:11;3.15;;;1.65;;
46198;SDS011;31928;52.104;10.030;2023-08-24T01:10:50;1.77;;;1.67;;
46198;SDS011;31928;52.104;10.030;2023-08-24T01:13:27;1.70;;;1.60;;
46198;SDS011;31928;52.104;10.030;2023-08-24T01:16:08;2.28;;;2.08;;
46198;SDS011;31928;52.104;10.030;2023-08-24T01:18:42;2.10;;;1.60;;
46198;SDS011;31928;52.104;10.030;2023-08-24T01:21:10;1.70;;;1.60;;
46198;SDS011;31928;52.104;10.030;2023-08-24T01:23:48;1.77;;;1.48;;
46198;SDS011;31928;52.104;10.030;2023-08-24T01:26:20;1.75;;;1.65;;
46198;SDS011;31928;52.104;10.030;2023-08-24T01:28:47;1.60;;;1.50;;
46198;SDS011;31928;52.104;10.030;2023-08-24T01:31:14;1.70;;;1.60;;
46198;SDS011;31928;52.104;10.030;2023-08-24T01:33:45;1.80;;;1.70;;
46198;SDS011;31928;52.104;10.030;2023-08-24T01:36:12;2.30;;;2.10;;
46198;SDS011;31928;52.104;10.030;2023-08-24T01:38:43;1.80;;;1.70;;
46198;SDS011;31928;52.104;10.030;2023-08-24T01:41:20;1.90;;;1.80;;
46198;SDS011;31928;52.104;10.030;2023-08-24T01:43:52;1.80;;;1.70;;
46198;SDS011;31928;52.104;10.030;2023-08-24T01:46:21;2.08;;;1.75;;
46198;SDS011;31928;52.104;10.030;2023-08-24T01:48:48;1.75;;;1.65;;
46198;SDS011;31928;52.104;10.030;2023-08-24T01:51:16;1.70;;;1.60;;
46198;SDS011;31928;52.104;10.030;2023-08-24T01:53:43;1.70;;;1.60;;
46198;SDS011;31928;52.104;10.030;2023-08-24T01:56:12;1.65;;;1.55;;
46198;SDS011;31928;52.104;10.030;2023-08-24T01:58:39;1.92;;;1.65;;
46198;SDS011;31928;52.104;10.030;2023-08-24T02:01:06;1.73;;;1.63;;
46198;SDS011;31928;52.104;10.030;2023-08-24T02:03:34;2.03;;;1.73;;
46198;SDS011;31928;52.104;10.030;2023-08-24T02:06:01;3.42;;;1.80;;
46198;SDS011;31928;52.104;10.030;2023-08-24T02:08:28;2.63;;;1.90;;
46198;SDS011;31928;52.104;10.030;2023-08-24T02:10:56;1.95;;;1.67;;
46198;SDS011;31928;52.104;10.030;2023-08-24T02:13:22;2.10;;;1.90;;
46198;SDS011;31928;52.104;10.030;2023-08-24T02:15:49;2.65;;;1.70;;
46198;SDS011;31928;52.104;10.030;2023-08-24T02:18:16;1.75;;;1.63;;
46198;SDS011;31928;52.104;10.030;2023-08-24T02:20:43;1.80;;;1.70;;
46198;SDS011;31928;52.104;10.030;2023-08-24T02:23:09;2.10;;;1.90;;
46198;SDS011;31928;52.104;10.030;2023-08-24T02:25:41;2.10;;;1.90;;
46198;SDS011;31928;52.104;10.030;2023-08-24T02:28:08;1.92;;;1.83;;
46198;SDS011;31928;52.104;10.030;2023-08-24T02:30:37;2.10;;;1.90;;
46198;SDS011;31928;52.104;10.030;2023-08-24T02:33:05;1.73;;;1.63;;
46198;SDS011;31928;52.104;10.030;2023-08-24T02:35:32;2.25;;;2.05;;
46198;SDS011;31928;52.104;10.030;2023-08-24T02:37:58;1.92;;;1.83;;
46198;SDS011;31928;52.104;10.030;2023-08-24T02:40:25;2.05;;;1.70;;
46198;SDS011;31928;52.104;10.030;2023-08-24T02:42:52;1.83;;;1.73;;
46198;SDS011;31928;52.104;10.030;2023-08-24T02:45:18;2.38;;;2.17;;
46198;SDS011;31928;52.104;10.030;2023-08-24T02:47:45;2.50;;;1.88;;
46198;SDS011;31928;52.104;10.030;2023-08-24T02:50:11;2.20;;;2.00;;
46198;SDS011;31928;52.104;10.030;2023-08-24T02:52:38;1.90;;;1.80;;
46198;SDS011;31928;52.104;10.030;2023-08-24T02:55:05;2.60;;;2.40;;
46198;SDS011;31928;52.104;10.030;2023-08-24T02:57:32;2.17;;;2.00;;
46198;SDS011;31928;52.104;10.030;2023-08-24T03:00:01;1.98;;;1.85;;
46198;SDS011;31928;52.104;10.030;2023-08-24T03:02:29;2.05;;;1.95;;
46198;SDS011;31928;52.104;10.030;2023-08-24T03:04:56;1.83;;;1.73;;
46198;SDS011;31928;52.104;10.030;2023-08-24T03:07:23;3.22;;;2.45;;
46198;SDS011;31928;52.104;10.030;2023-08-24T03:09:49;1.98;;;1.88;;
46198;SDS011;31928;52.104;10.030;2023-08-24T03:12:16;2.00;;;1.90;;
46198;SDS011;31928;52.104;10.030;2023-08-24T03:14:42;2.33;;;2.00;;
46198;SDS011;31928;52.104;10.030;2023-08-24T03:17:09;3.03;;;1.98;;
46198;SDS011;31928;52.104;10.030;2023-08-24T03:19:35;1.90;;;1.80;;
46198;SDS011;31928;52.104;10.030;2023-08-24T03:22:02;1.90;;;1.80;;
46198;SDS011;31928;52.104;10.030;2023-08-24T03:24:29;1.95;;;1.80;;
46198;SDS011;31928;52.104;10.030;2023-08-24T03:26:56;2.30;;;2.10;;
46198;SDS011;31928;52.104;10.030;2023-08-24T03:29:23;2.10;;;2.00;;
46198;SDS011;31928;52.104;10.030;2023-08-24T03:31:49;2.08;;;1.98;;
46198;SDS011;31928;52.104;10.030;2023-08-24T03:34:16;2.20;;;2.00;;
46198;SDS011;31928;52.104;10.030;2023-08-24T03:36:43;2.25;;;2.05;;
46198;SDS011;31928;52.104;10.030;2023-08-24T03:39:09;2.00;;;1.80;;
46198;SDS011;31928;52.104;10.030;2023-08-24T03:41:36;1.98;;;1.88;;
46198;SDS011;31928;52.104;10.030;2023-08-24T03:44:02;2.40;;;2.17;;
46198;SDS011;31928;52.104;10.030;2023-08-24T03:46:29;2.03;;;1.92;;
46198;SDS011;31928;52.104;10.030;2023-08-24T03:48:56;2.85;;;2.30;;
46198;SDS011;31928;52.104;10.030;2023-08-24T03:51:23;2.25;;;2.15;;
46198;SDS011;31928;52.104;10.030;2023-08-24T03:53:49;2.08;;;1.98;;
46198;SDS011;31928;52.104;10.030;2023-08-24T03:56:16;2.00;;;1.90;;
46198;SDS011;31928;52.104;10.030;2023-08-24T03:58:42;2.20;;;2.10;;
46198;SDS011;31928;52.104;10.030;2023-08-24T04:01:10;3.10;;;2.20;;
46198;SDS011;31928;52.104;10.030;2023-08-24T04:03:37;2.05;;;1.95;;
46198;SDS011;31928;52.104;10.030;2023-08-24T04:06:04;2.30;;;2.10;;
46198;SDS011;31928;52.104;10.030;2023-08-24T04:08:32;2.15;;;2.05;;
46198;SDS011;31928;52.104;10.030;2023-08-24T04:10:58;2.40;;;2.30;;
46198;SDS011;31928;52.104;10.030;2023-08-24T04:13:25;2.17;;;2.08;;
46198;SDS011;31928;52.104;10.030;2023-08-24T04:15:52;2.20;;;2.10;;
46198;SDS011;31928;52.104;10.030;2023-08-24T04:18:19;2.53;;;2.40;;
46198;SDS011;31928;52.104;10.030;2023-08-24T04:20:46;1.98;;;1.85;;
46198;SDS011;31928;52.104;10.030;2023-08-24T04:23:13;2.42;;;2.22;;
46198;SDS011;31928;52.104;10.030;2023-08-24T04:25:40;2.80;;;2.60;;
46198;SDS011;31928;52.104;10.030;2023-08-24T04:28:07;2.20;;;2.10;;
46198;SDS011;31928;52.104;10.030;2023-08-24T04:30:33;2.53;;;2.33;;
46198;SDS011;31928;52.104;10.030;2023-08-24T04:33:00;2.30;;;2.20;;
46198;SDS011;31928;52.104;10.030;2023-08-24T04:35:27;2.75;;;2.03;;
46198;SDS011;31928;52.104;10.030;2023-08-24T04:37:54;2.03;;;1.92;;
46198;SDS011;31928;52.104;10.030;2023-08-24T04:40:21;2.55;;;2.17;;
46198;SDS011;31928;52.104;10.030;2023-08-24T04:42:48;2.63;;;2.08;;
46198;SDS011;31928;52.104;10.030;2023-08-24T04:45:14;2.40;;;2.20;;
46198;SDS011;31928;52.104;10.030;2023-08-24T04:47:41;2.10;;;1.90;;
46198;SDS011;31928;52.104;10.030;2023-08-24T04:50:08;2.78;;;2.58;;
46198;SDS011;31928;52.104;10.030;2023-08-24T04:52:35;2.00;;;1.90;;
46198;SDS011;31928;52.104;10.030;2023-08-24T04:55:01;2.20;;;2.00;;
46198;SDS011;31928;52.104;10.030;2023-08-24T04:57:29;2.05;;;1.95;;
46198;SDS011;31928;52.104;10.030;2023-08-24T04:59:56;2.78;;;2.20;;
46198;SDS011;31928;52.104;10.030;2023-08-24T05:02:23;2.58;;;2.30;;
46198;SDS011;31928;52.104;10.030;2023-08-24T05:04:49;3.22;;;1.98;;
46198;SDS011;31928;52.104;10.030;2023-08-24T05:07:16;1.90;;;1.80;;
46198;SDS011;31928;52.104;10.030;2023-08-24T05:09:43;2.60;;;2.40;;
46198;SDS011;31928;52.104;10.030;2023-08-24T05:12:10;2.22;;;2.13;;
46198;SDS011;31928;52.104;10.030;2023-08-24T05:14:37;2.38;;;2.20;;
46198;SDS011;31928;52.104;10.030;2023-08-24T05:17:03;2.20;;;1.98;;
46198;SDS011;31928;52.104;10.030;2023-08-24T05:19:31;2.83;;;2.42;;
46198;SDS011;31928;52.104;10.030;2023-08-24T05:21:57;2.30;;;2.17;;
46198;SDS011;31928;52.104;10.030;2023-08-24T05:24:24;2.28;;;2.17;;
46198;SDS011;31928;52.104;10.030;2023-08-24T05:26:51;2.53;;;2.33;;
46198;SDS011;31928;52.104;10.030;2023-08-24T05:29:17;2.58;;;2.38;;
46198;SDS011;31928;52.104;10.030;2023-08-24T05:31:44;2.97;;;2.78;;
46198;SDS011;31928;52.104;10.030;2023-08-24T05:34:11;3.42;;;2.63;;
46198;SDS011;31928;52.104;10.030;2023-08-24T05:36:37;3.00;;;2.70;;
46198;SDS011;31928;52.104;10.030;2023-08-24T05:39:04;2.67;;;2.15;;
46198;SDS011;31928;52.104;10.030;2023-08-24T05:41:32;2.42;;;2.22;;
46198;SDS011;31928;52.104;10.030;2023-08-24T05:43:59;2.67;;;2.47;;
46198;SDS011;31928;52.104;10.030;2023-08-24T05:46:26;2.58;;;2.38;;
46198;SDS011;31928;52.104;10.030;2023-08-24T05:48:53;2.53;;;2.33;;
46198;SDS011;31928;52.104;10.030;2023-08-24T05:51:19;3.08;;;2.72;;
46198;SDS011;31928;52.104;10.030;2023-08-24T05:53:46;3.20;;;3.00;;
46198;SDS011;31928;52.104;10.030;2023-08-24T05:56:12;2.53;;;2.35;;
46198;SDS011;31928;52.104;10.030;2023-08-24T05:58:39;2.40;;;2.20;;
46198;SDS011;31928;52.104;10.030;2023-08-24T06:01:06;2.70;;;2.53;;
46198;SDS011;31928;52.104;10.030;2023-08-24T06:03:33;3.22;;;2.60;;
46198;SDS011;31928;52.104;10.030;2023-08-24T06:06:01;2.92;;;2.50;;
46198;SDS011;31928;52.104;10.030;2023-08-24T06:08:29;3.10;;;2.60;;
46198;SDS011;31928;52.104;10.030;2023-08-24T06:10:57;2.47;;;2.33;;
46198;SDS011;31928;52.104;10.030;2023-08-24T06:13:24;2.70;;;2.50;;
46198;SDS011;31928;52.104;10.030;2023-08-24T06:15:51;2.70;;;2.50;;
46198;SDS011;31928;52.104;10.030;2023-08-24T06:18:18;2.55;;;2.40;;
46198;SDS011;31928;52.104;10.030;2023-08-24T06:20:45;3.28;;;2.92;;
46198;SDS011;31928;52.104;10.030;2023-08-24T06:23:12;2.80;;;2.60;;
46198;SDS011;31928;52.104;10.030;2023-08-24T06:25:41;3.10;;;2.90;;
46198;SDS011;31928;52.104;10.030;2023-08-24T06:28:08;3.30;;;3.10;;
46198;SDS011;31928;52.104;10.030;2023-08-24T06:30:38;3.20;;;2.92;;
46198;SDS011;31928;52.104;10.030;2023-08-24T06:33:06;2.85;;;2.65;;
46198;SDS011;31928;52.104;10.030;2023-08-24T06:35:34;3.05;;;2.83;;
46198;SDS011;31928;52.104;10.030;2023-08-24T06:38:01;2.75;;;2.55;;
46198;SDS011;31928;52.104;10.030;2023-08-24T06:40:29;3.17;;;2.95;;
46198;SDS011;31928;52.104;10.030;2023-08-24T06:42:56;3.20;;;2.90;;
46198;SDS011;31928;52.104;10.030;2023-08-24T06:45:23;3.78;;;3.13;;
46198;SDS011;31928;52.104;10.030;2023-08-24T06:47:50;3.00;;;2.80;;
46198;SDS011;31928;52.104;10.030;2023-08-24T06:50:18;3.03;;;2.83;;
46198;SDS011;31928;52.104;10.030;2023-08-24T06:52:46;3.08;;;2.88;;
46198;SDS011;31928;52.104;10.030;2023-08-24T06:55:12;3.17;;;2.97;;
46198;SDS011;31928;52.104;10.030;2023-08-24T06:57:39;3.13;;;2.92;;
46198;SDS011;31928;52.104;10.030;2023-08-24T07:00:07;4.10;;;3.45;;
46198;SDS011;31928;52.104;10.030;2023-08-24T07:02:35;3.30;;;3.00;;
46198;SDS011;31928;52.104;10.030;2023-08-24T07:05:03;3.42;;;3.13;;
46198;SDS011;31928;52.104;10.030;2023-08-24T07:07:35;3.10;;;2.90;;
46198;SDS011;31928;52.104;10.030;2023-08-24T07:10:01;3.60;;;3.30;;
46198;SDS011;31928;52.104;10.030;2023-08-24T07:12:29;2.50;;;2.38;;
46198;SDS011;31928;52.104;10.030;2023-08-24T07:14:56;3.20;;;3.00;;
46198;SDS011;31928;52.104;10.030;2023-08-24T07:17:23;3.08;;;2.88;;
46198;SDS011;31928;52.104;10.030;2023-08-24T07:19:50;3.85;;;3.40;;
46198;SDS011;31928;52.104;10.030;2023-08-24T07:22:16;3.00;;;2.80;;
46198;SDS011;31928;52.104;10.030;2023-08-24T07:24:43;3.35;;;2.45;;
46198;SDS011;31928;52.104;10.030;2023-08-24T07:27:11;2.80;;;2.60;;
46198;SDS011;31928;52.104;10.030;2023-08-24T07:29:38;3.45;;;3.15;;
46198;SDS011;31928;52.104;10.030;2023-08-24T07:32:05;3.17;;;2.88;;
46198;SDS011;31928;52.104;10.030;2023-08-24T07:34:32;3.10;;;2.83;;
46198;SDS011;31928;52.104;10.030;2023-08-24T07:36:58;3.17;;;2.90;;
46198;SDS011;31928;52.104;10.030;2023-08-24T07:39:25;3.90;;;3.60;;
46198;SDS011;31928;52.104;10.030;2023-08-24T07:41:52;3.75;;;3.45;;
46198;SDS011;31928;52.104;10.030;2023-08-24T07:44:19;3.72;;;3.35;;
46198;SDS011;31928;52.104;10.030;2023-08-24T07:46:46;3.47;;;3.17;;
46198;SDS011;31928;52.104;10.030;2023-08-24T07:49:13;4.20;;;3.75;;
46198;SDS011;31928;52.104;10.030;2023-08-24T07:51:40;3.35;;;3.15;;
46198;SDS011;31928;52.104;10.030;2023-08-24T07:54:09;3.28;;;2.97;;
46198;SDS011;31928;52.104;10.030;2023-08-24T07:56:36;3.20;;;3.00;;
46198;SDS011;31928;52.104;10.030;2023-08-24T07:59:03;3.50;;;3.20;;
46198;SDS011;31928;52.104;10.030;2023-08-24T08:01:29;2.95;;;2.75;;
46198;SDS011;31928;52.104;10.030;2023-08-24T08:03:57;3.03;;;2.83;;
46198;SDS011;31928;52.104;10.030;2023-08-24T08:06:24;6.97;;;3.80;;
46198;SDS011;31928;52.104;10.030;2023-08-24T08:08:53;2.85;;;2.65;;
46198;SDS011;31928;52.104;10.030;2023-08-24T08:11:20;2.90;;;2.70;;
46198;SDS011;31928;52.104;10.030;2023-08-24T08:13:47;2.67;;;2.47;;
46198;SDS011;31928;52.104;10.030;2023-08-24T08:16:14;2.90;;;2.70;;
46198;SDS011;31928;52.104;10.030;2023-08-24T08:18:41;2.92;;;2.65;;
46198;SDS011;31928;52.104;10.030;2023-08-24T08:21:15;3.20;;;2.90;;
46198;SDS011;31928;52.104;10.030;2023-08-24T08:23:47;2.90;;;2.70;;
46198;SDS011;31928;52.104;10.030;2023-08-24T08:26:14;3.00;;;2.80;;
46198;SDS011;31928;52.104;10.030;2023-08-24T08:28:42;3.05;;;2.70;;
46198;SDS011;31928;52.104;10.030;2023-08-24T08:31:08;2.85;;;2.65;;
46198;SDS011;31928;52.104;10.030;2023-08-24T08:33:35;2.90;;;2.70;;
46198;SDS011;31928;52.104;10.030;2023-08-24T08:36:02;2.78;;;2.60;;
46198;SDS011;31928;52.104;10.030;2023-08-24T08:38:30;2.65;;;2.47;;
46198;SDS011;31928;52.104;10.030;2023-08-24T08:41:02;3.38;;;2.97;;
46198;SDS011;31928;52.104;10.030;2023-08-24T08:43:31;3.15;;;2.78;;
46198;SDS011;31928;52.104;10.030;2023-08-24T08:45:58;3.55;;;3.25;;
46198;SDS011;31928;52.104;10.030;2023-08-24T08:48:27;3.67;;;3.08;;
46198;SDS011;31928;52.104;10.030;2023-08-24T08:50:57;3.33;;;2.88;;
46198;SDS011;31928;52.104;10.030;2023-08-24T08:53:24;3.78;;;3.13;;
46198;SDS011;31928;52.104;10.030;2023-08-24T08:55:51;2.88;;;2.67;;
46198;SDS011;31928;52.104;10.030;2023-08-24T08:58:20;3.10;;;2.75;;
46198;SDS011;31928;52.104;10.030;2023-08-24T09:00:47;9.65;;;3.53;;
46198;SDS011;31928;52.104;10.030;2023-08-24T09:03:17;2.88;;;2.58;;
46198;SDS011;31928;52.104;10.030;2023-08-24T09:05:45;2.83;;;2.63;;
46198;SDS011;31928;52.104;10.030;2023-08-24T09:08:18;2.55;;;2.40;;
46198;SDS011;31928;52.104;10.030;2023-08-24T09:10:45;3.20;;;2.95;;
46198;SDS011;31928;52.104;10.030;2023-08-24T09:13:12;2.33;;;2.22;;
46198;SDS011;31928;52.104;10.030;2023-08-24T09:15:39;2.53;;;2.33;;
46198;SDS011;31928;52.104;10.030;2023-08-24T09:18:06;3.20;;;2.75;;
46198;SDS011;31928;52.104;10.030;2023-08-24T09:20:33;2.67;;;2.47;;
46198;SDS011;31928;52.104;10.030;2023-08-24T09:23:00;5.40;;;2.90;;
46198;SDS011;31928;52.104;10.030;2023-08-24T09:25:27;2.65;;;2.45;;
46198;SDS011;31928;52.104;10.030;2023-08-24T09:27:58;2.60;;;2.30;;
46198;SDS011;31928;52.104;10.030;2023-08-24T09:30:34;2.90;;;2.20;;
46198;SDS011;31928;52.104;10.030;2023-08-24T09:33:02;2.65;;;2.47;;
46198;SDS011;31928;52.104;10.030;2023-08-24T09:35:39;2.50;;;2.40;;
46198;SDS011;31928;52.104;10.030;2023-08-24T09:38:18;3.20;;;2.78;;
46198;SDS011;31928;52.104;10.030;2023-08-24T09:40:47;2.67;;;2.45;;
46198;SDS011;31928;52.104;10.030;2023-08-24T09:43:17;2.92;;;2.53;;
46198;SDS011;31928;52.104;10.030;2023-08-24T09:45:51;3.38;;;2.45;;
46198;SDS011;31928;52.104;10.030;2023-08-24T09:48:18;2.95;;;2.65;;
46198;SDS011;31928;52.104;10.030;2023-08-24T09:50:47;2.72;;;2.42;;
46198;SDS011;31928;52.104;10.030;2023-08-24T09:53:18;3.10;;;2.65;;
46198;SDS011;31928;52.104;10.030;2023-08-24T09:55:48;4.43;;;3.35;;
46198;SDS011;31928;52.104;10.030;2023-08-24T09:58:25;2.65;;;2.45;;
46198;SDS011;31928;52.104;10.030;2023-08-24T10:00:52;3.10;;;2.80;;
46198;SDS011;31928;52.104;10.030;2023-08-24T10:03:21;2.65;;;2.55;;
46198;SDS011;31928;52.104;10.030;2023-08-24T10:05:54;3.50;;;2.22;;
46198;SDS011;31928;52.104;10.030;2023-08-24T10:08:37;2.70;;;2.38;;
46198;SDS011;31928;52.104;10.030;2023-08-24T11:51:32;1.92;;;1.50;;
46198;SDS011;31928;52.104;10.030;2023-08-24T11:56:42;3.55;;;1.65;;
46198;SDS011;31928;52.104;10.030;2023-08-24T11:59:12;1.80;;;1.70;;
46198;SDS011;31928;52.104;10.030;2023-08-24T12:01:40;2.35;;;2.00;;
46198;SDS011;31928;52.104;10.030;2023-08-24T12:04:08;2.30;;;1.90;;
46198;SDS011;31928;52.104;10.030;2023-08-24T12:06:35;2.35;;;2.15;;
46198;SDS011;31928;52.104;10.030;2023-08-24T12:09:04;2.50;;;2.30;;
46198;SDS011;31928;52.104;10.030;2023-08-24T12:11:35;2.22;;;2.13;;
46198;SDS011;31928;52.104;10.030;2023-08-24T12:14:03;2.03;;;1.83;;
46198;SDS011;31928;52.104;10.030;2023-08-24T12:16:31;2.30;;;2.10;;
46198;SDS011;31928;52.104;10.030;2023-08-24T12:18:59;2.70;;;1.98;;
46198;SDS011;31928;52.104;10.030;2023-08-24T12:21:29;1.85;;;1.65;;
46198;SDS011;31928;52.104;10.030;2023-08-24T12:26:33;2.00;;;1.80;;
46198;SDS011;31928;52.104;10.030;2023-08-24T12:29:05;2.70;;;2.13;;
46198;SDS011;31928;52.104;10.030;2023-08-24T12:31:33;2.55;;;1.75;;
46198;SDS011;31928;52.104;10.030;2023-08-24T12:34:00;2.40;;;1.73;;
46198;SDS011;31928;52.104;10.030;2023-08-24T12:36:27;2.40;;;1.77;;
46198;SDS011;31928;52.104;10.030;2023-08-24T12:38:54;2.00;;;1.90;;
46198;SDS011;31928;52.104;10.030;2023-08-24T12:41:21;3.25;;;2.00;;
46198;SDS011;31928;52.104;10.030;2023-08-24T12:43:49;2.00;;;1.58;;
46198;SDS011;31928;52.104;10.030;2023-08-24T12:46:17;1.88;;;1.75;;
46198;SDS011;31928;52.104;10.030;2023-08-24T12:48:44;2.20;;;1.73;;
46198;SDS011;31928;52.104;10.030;2023-08-24T12:51:10;2.20;;;2.00;;
46198;SDS011;31928;52.104;10.030;2023-08-24T12:53:37;2.05;;;1.88;;
46198;SDS011;31928;52.104;10.030;2023-08-24T12:56:04;2.33;;;2.08;;
46198;SDS011;31928;52.104;10.030;2023-08-24T12:58:31;3.97;;;1.80;;
46198;SDS011;31928;52.104;10.030;2023-08-24T13:00:57;2.15;;;1.95;;
46198;SDS011;31928;52.104;10.030;2023-08-24T13:03:24;2.20;;;1.80;;
46198;SDS011;31928;52.104;10.030;2023-08-24T13:05:51;2.45;;;1.80;;
46198;SDS011;31928;52.104;10.030;2023-08-24T13:08:17;2.00;;;1.80;;
46198;SDS011;31928;52.104;10.030;2023-08-24T13:10:44;1.55;;;1.45;;
46198;SDS011;31928;52.104;10.030;2023-08-24T13:13:11;1.90;;;1.58;;
46198;SDS011;31928;52.104;10.030;2023-08-24T13:15:37;1.63;;;1.52;;
46198;SDS011;31928;52.104;10.030;2023-08-24T13:18:04;2.05;;;1.75;;
46198;SDS011;31928;52.104;10.030;2023-08-24T13:20:31;1.90;;;1.80;;
46198;SDS011;31928;52.104;10.030;2023-08-24T13:22:57;1.90;;;1.70;;
46198;SDS011;31928;52.104;10.030;2023-08-24T13:25:24;1.98;;;1.77;;
46198;SDS011;31928;52.104;10.030;2023-08-24T13:27:51;1.88;;;1.75;;
46198;SDS011;31928;52.104;10.030;2023-08-24T13:30:18;2.92;;;1.80;;
46198;SDS011;31928;52.104;10.030;2023-08-24T13:32:44;1.92;;;1.77;;
46198;SDS011;31928;52.104;10.030;2023-08-24T13:35:11;2.20;;;2.03;;
46198;SDS011;31928;52.104;10.030;2023-08-24T13:37:37;2.38;;;1.75;;
46198;SDS011;31928;52.104;10.030;2023-08-24T13:40:04;1.88;;;1.58;;
46198;SDS011;31928;52.104;10.030;2023-08-24T13:42:31;3.05;;;1.75;;
46198;SDS011;31928;52.104;10.030;2023-08-24T13:44:58;1.90;;;1.75;;
46198;SDS011;31928;52.104;10.030;2023-08-24T13:47:25;1.50;;;1.40;;
46198;SDS011;31928;52.104;10.030;2023-08-24T13:49:51;1.73;;;1.63;;
46198;SDS011;31928;52.104;10.030;2023-08-24T13:52:18;1.80;;;1.70;;
46198;SDS011;31928;52.104;10.030;2023-08-24T13:54:45;2.00;;;1.90;;
46198;SDS011;31928;52.104;10.030;2023-08-24T13:57:24;3.15;;;1.65;;
46198;SDS011;31928;52.104;10.030;2023-08-24T13:59:51;1.92;;;1.70;;
46198;SDS011;31928;52.104;10.030;2023-08-24T14:02:18;1.90;;;1.70;;
46198;SDS011;31928;52.104;10.030;2023-08-24T14:04:44;1.63;;;1.52;;
46198;SDS011;31928;52.104;10.030;2023-08-24T14:07:11;2.35;;;1.38;;
46198;SDS011;31928;52.104;10.030;2023-08-24T14:09:40;2.25;;;1.80;;
46198;SDS011;31928;52.104;10.030;2023-08-24T14:12:24;1.90;;;1.70;;
46198;SDS011;31928;52.104;10.030;2023-08-24T14:14:51;3.33;;;1.70;;
46198;SDS011;31928;52.104;10.030;2023-08-24T14:17:18;2.05;;;1.80;;
46198;SDS011;31928;52.104;10.030;2023-08-24T14:19:44;2.03;;;1.80;;
46198;SDS011;31928;52.104;10.030;2023-08-24T14:22:11;3.28;;;1.80;;
46198;SDS011;31928;52.104;10.030;2023-08-24T14:24:38;1.88;;;1.70;;
46198;SDS011;31928;52.104;10.030;2023-08-24T14:27:04;2.13;;;1.80;;
46198;SDS011;31928;52.104;10.030;2023-08-24T14:29:31;2.38;;;1.58;;
46198;SDS011;31928;52.104;10.030;2023-08-24T14:31:58;1.85;;;1.65;;
46198;SDS011;31928;52.104;10.030;2023-08-24T14:34:24;2.33;;;1.85;;
46198;SDS011;31928;52.104;10.030;2023-08-24T14:36:51;2.40;;;1.90;;
46198;SDS011;31928;52.104;10.030;2023-08-24T14:39:18;2.40;;;1.83;;
46198;SDS011;31928;52.104;10.030;2023-08-24T14:41:45;1.70;;;1.60;;
46198;SDS011;31928;52.104;10.030;2023-08-24T14:44:12;2.53;;;1.98;;
46198;SDS011;31928;52.104;10.030;2023-08-24T14:46:39;4.05;;;1.85;;
46198;SDS011;31928;52.104;10.030;2023-08-24T14:49:05;1.88;;;1.73;;
46198;SDS011;31928;52.104;10.030;2023-08-24T14:51:32;2.03;;;1.83;;
46198;SDS011;31928;52.104;10.030;2023-08-24T14:53:59;2.13;;;1.45;;
46198;SDS011;31928;52.104;10.030;2023-08-24T14:56:25;1.75;;;1.65;;
46198;SDS011;31928;52.104;10.030;2023-08-24T14:58:52;2.28;;;2.08;;
46198;SDS011;31928;52.104;10.030;2023-08-24T15:01:19;2.20;;;2.00;;
46198;SDS011;31928;52.104;10.030;2023-08-24T15:03:45;1.63;;;1.52;;
46198;SDS011;31928;52.104;10.030;2023-08-24T15:06:12;2.35;;;1.77;;
46198;SDS011;31928;52.104;10.030;2023-08-24T15:08:39;2.88;;;2.50;;
46198;SDS011;31928;52.104;10.030;2023-08-24T15:11:07;2.45;;;2.25;;
46198;SDS011;31928;52.104;10.030;2023-08-24T15:13:34;1.80;;;1.70;;
46198;SDS011;31928;52.104;10.030;2023-08-24T15:16:00;3.42;;;2.13;;
46198;SDS011;31928;52.104;10.030;2023-08-24T15:18:27;2.25;;;2.00;;
46198;SDS011;31928;52.104;10.030;2023-08-24T15:20:54;2.20;;;2.00;;
46198;SDS011;31928;52.104;10.030;2023-08-24T15:23:25;3.28;;;2.10;;
46198;SDS011;31928;52.104;10.030;2023-08-24T15:25:54;3.85;;;2.10;;
46198;SDS011;31928;52.104;10.030;2023-08-24T15:28:22;2.40;;;1.70;;
46198;SDS011;31928;52.104;10.030;2023-08-24T15:30:49;1.90;;;1.80;;
46198;SDS011;31928;52.104;10.030;2023-08-24T15:33:16;2.20;;;2.00;;
46198;SDS011;31928;52.104;10.030;2023-08-24T15:35:44;4.35;;;2.20;;
46198;SDS011;31928;52.104;10.030;2023-08-24T15:38:11;2.10;;;1.90;;
46198;SDS011;31928;52.104;10.030;2023-08-24T15:40:38;2.20;;;1.92;;
46198;SDS011;31928;52.104;10.030;2023-08-24T15:43:05;2.42;;;2.22;;
46198;SDS011;31928;52.104;10.030;2023-08-24T15:45:33;2.47;;;2.28;;
46198;SDS011;31928;52.104;10.030;2023-08-24T15:48:00;2.08;;;1.73;;
46198;SDS011;31928;52.104;10.030;2023-08-24T15:50:27;3.80;;;2.83;;
46198;SDS011;31928;52.104;10.030;2023-08-24T15:52:54;2.42;;;2.20;;
46198;SDS011;31928;52.104;10.030;2023-08-24T15:55:28;4.43;;;2.50;;
46198;SDS011;31928;52.104;10.030;2023-08-24T15:58:00;3.20;;;2.22;;
46198;SDS011;31928;52.104;10.030;2023-08-24T16:00:28;2.53;;;2.22;;
46198;SDS011;31928;52.104;10.030;2023-08-24T16:02:55;2.17;;;1.98;;
46198;SDS011;31928;52.104;10.030;2023-08-24T16:05:22;2.22;;;2.03;;
46198;SDS011;31928;52.104;10.030;2023-08-24T16:07:52;1.98;;;1.73;;
46198;SDS011;31928;52.104;10.030;2023-08-24T16:10:20;2.83;;;2.05;;
46198;SDS011;31928;52.104;10.030;2023-08-24T16:12:47;2.47;;;2.05;;
46198;SDS011;31928;52.104;10.030;2023-08-24T16:15:14;2.28;;;1.90;;
46198;SDS011;31928;52.104;10.030;2023-08-24T16:17:41;2.92;;;1.92;;
46198;SDS011;31928;52.104;10.030;2023-08-24T16:20:08;2.95;;;2.00;;
46198;SDS011;31928;52.104;10.030;2023-08-24T16:22:36;2.00;;;1.77;;